createdAt,value
2023-04-27T00:00:05.575Z,2.42
2023-04-27T00:01:05.549Z,2.42
2023-04-27T00:02:05.628Z,2.44
2023-04-27T00:03:06.061Z,2.46
2023-04-27T00:04:05.667Z,2.50
2023-04-27T00:05:05.701Z,2.53
2023-04-27T00:06:05.594Z,2.53
2023-04-27T00:07:05.528Z,2.57
2023-04-27T00:08:05.485Z,2.62
2023-04-27T00:09:05.502Z,2.64
2023-04-27T00:10:05.465Z,2.65
2023-04-27T00:11:05.442Z,2.65
2023-04-27T00:12:05.498Z,2.64
2023-04-27T00:13:05.436Z,2.65
2023-04-27T00:14:05.419Z,2.64
2023-04-27T00:15:05.412Z,-40.00
2023-04-27T00:16:05.463Z,-40.00
2023-04-27T00:17:05.442Z,-40.00
2023-04-27T00:18:05.426Z,2.65
2023-04-27T00:19:05.364Z,-39.98
2023-04-27T00:20:05.366Z,-40.00
2023-04-27T00:21:05.350Z,-40.00
2023-04-27T00:22:05.377Z,2.62
2023-04-27T00:23:05.340Z,2.61
2023-04-27T00:24:05.285Z,2.60
2023-04-27T00:25:05.301Z,2.62
2023-04-27T00:26:05.273Z,2.65
2023-04-27T00:27:05.316Z,2.71
2023-04-27T00:28:05.260Z,2.75
2023-04-27T00:29:05.280Z,2.75
2023-04-27T00:30:05.265Z,2.75
2023-04-27T00:31:05.237Z,2.74
2023-04-27T00:32:05.297Z,2.75
2023-04-27T00:33:05.261Z,2.77
2023-04-27T00:34:05.189Z,-40.00
2023-04-27T00:35:05.220Z,2.77
2023-04-27T00:36:05.190Z,2.77
2023-04-27T00:37:05.208Z,2.79
2023-04-27T00:38:05.170Z,2.79
2023-04-27T00:39:05.140Z,2.60
2023-04-27T00:40:05.158Z,2.60
2023-04-27T00:41:05.133Z,-39.96
2023-04-27T00:42:05.150Z,-39.96
2023-04-27T00:43:05.117Z,2.83
2023-04-27T00:44:05.091Z,-39.96
2023-04-27T00:45:05.079Z,-40.00
2023-04-27T00:46:05.116Z,-40.00
2023-04-27T00:47:05.090Z,-40.00
2023-04-27T00:48:05.080Z,2.83
2023-04-27T00:49:05.023Z,2.82
2023-04-27T00:50:05.020Z,-39.96
2023-04-27T00:51:04.994Z,2.80
2023-04-27T00:52:05.053Z,2.80
2023-04-27T00:53:05.003Z,2.79
2023-04-27T00:54:04.970Z,2.80
2023-04-27T00:55:04.953Z,2.80
2023-04-27T00:56:04.954Z,2.79
2023-04-27T00:57:04.967Z,2.82
2023-04-27T00:58:04.933Z,2.79
2023-04-27T00:59:04.932Z,2.79
2023-04-27T01:00:04.900Z,2.79
2023-04-27T01:01:04.927Z,2.79
2023-04-27T01:02:04.956Z,2.79
2023-04-27T01:03:05.097Z,2.82
2023-04-27T01:04:05.061Z,2.82
2023-04-27T01:05:04.834Z,2.82
2023-04-27T01:06:04.864Z,2.83
2023-04-27T01:07:04.902Z,2.83
2023-04-27T01:08:04.806Z,2.82
2023-04-27T01:09:04.803Z,2.87
2023-04-27T01:10:04.792Z,2.89
2023-04-27T01:11:04.775Z,2.90
2023-04-27T01:12:04.766Z,2.92
2023-04-27T01:13:04.790Z,2.93
2023-04-27T01:14:04.733Z,2.93
2023-04-27T01:15:04.745Z,2.97
2023-04-27T01:16:04.729Z,3.03
2023-04-27T01:17:04.751Z,3.10
2023-04-27T01:18:04.854Z,3.13
2023-04-27T01:19:04.694Z,3.14
2023-04-27T01:20:04.704Z,3.16
2023-04-27T01:21:04.651Z,3.14
2023-04-27T01:22:04.636Z,3.18
2023-04-27T01:23:04.661Z,3.22
2023-04-27T01:24:04.624Z,3.21
2023-04-27T01:25:04.622Z,3.21
2023-04-27T01:26:04.598Z,3.21
2023-04-27T01:27:04.602Z,3.22
2023-04-27T01:28:04.600Z,3.22
2023-04-27T01:29:04.568Z,3.23
2023-04-27T01:30:04.570Z,3.28
2023-04-27T01:31:04.639Z,3.31
2023-04-27T01:32:04.559Z,3.29
2023-04-27T01:33:04.707Z,3.28
2023-04-27T01:34:04.545Z,3.28
2023-04-27T01:35:04.508Z,3.29
2023-04-27T01:36:04.549Z,3.25
2023-04-27T01:37:04.576Z,3.26
2023-04-27T01:38:04.570Z,3.28
2023-04-27T01:39:04.472Z,3.29
2023-04-27T01:40:04.448Z,3.29
2023-04-27T01:41:04.444Z,3.32
2023-04-27T01:42:04.659Z,3.37
2023-04-27T01:43:04.451Z,3.42
2023-04-27T01:44:04.420Z,3.45
2023-04-27T01:45:04.493Z,3.44
2023-04-27T01:46:04.433Z,3.45
2023-04-27T01:47:04.381Z,3.44
2023-04-27T01:48:04.462Z,3.45
2023-04-27T01:49:04.338Z,3.44
2023-04-27T01:50:04.321Z,3.41
2023-04-27T01:51:04.333Z,3.44
2023-04-27T01:52:04.299Z,3.44
2023-04-27T01:53:04.322Z,3.44
2023-04-27T01:54:04.280Z,3.44
2023-04-27T01:55:04.278Z,3.45
2023-04-27T01:56:04.273Z,3.48
2023-04-27T01:57:04.283Z,3.50
2023-04-27T01:58:04.308Z,3.47
2023-04-27T01:59:04.236Z,3.48
2023-04-27T02:00:04.229Z,3.51
2023-04-27T02:01:04.207Z,3.53
2023-04-27T02:02:04.330Z,3.56
2023-04-27T02:03:04.275Z,3.53
2023-04-27T02:04:04.512Z,3.53
2023-04-27T02:05:04.166Z,3.51
2023-04-27T02:06:04.166Z,3.48
2023-04-27T02:07:04.135Z,3.47
2023-04-27T02:08:04.157Z,3.50
2023-04-27T02:09:04.187Z,3.50
2023-04-27T02:10:04.181Z,3.48
2023-04-27T02:11:04.121Z,3.48
2023-04-27T02:12:04.102Z,3.48
2023-04-27T02:13:04.088Z,3.50
2023-04-27T02:14:04.115Z,3.50
2023-04-27T02:15:04.068Z,3.50
2023-04-27T02:16:04.072Z,3.53
2023-04-27T02:17:04.044Z,3.56
2023-04-27T02:18:04.081Z,3.59
2023-04-27T02:19:04.031Z,3.62
2023-04-27T02:20:03.981Z,3.65
2023-04-27T02:21:03.982Z,3.66
2023-04-27T02:22:04.096Z,3.65
2023-04-27T02:23:03.979Z,3.65
2023-04-27T02:24:03.986Z,3.63
2023-04-27T02:25:03.954Z,3.63
2023-04-27T02:26:03.928Z,3.65
2023-04-27T02:27:03.925Z,3.65
2023-04-27T02:28:03.921Z,3.62
2023-04-27T02:29:03.948Z,3.60
2023-04-27T02:30:03.895Z,3.59
2023-04-27T02:31:03.921Z,3.59
2023-04-27T02:32:03.889Z,3.62
2023-04-27T02:33:03.927Z,3.63
2023-04-27T02:34:03.905Z,3.63
2023-04-27T02:35:03.821Z,3.65
2023-04-27T02:36:03.835Z,3.63
2023-04-27T02:37:03.812Z,3.63
2023-04-27T02:38:03.791Z,3.62
2023-04-27T02:39:03.841Z,3.66
2023-04-27T02:40:03.791Z,3.66
2023-04-27T02:41:03.765Z,3.70
2023-04-27T02:42:03.757Z,3.69
2023-04-27T02:43:03.747Z,3.68
2023-04-27T02:44:03.763Z,3.66
2023-04-27T02:45:03.711Z,3.66
2023-04-27T02:46:03.727Z,3.63
2023-04-27T02:47:03.808Z,3.65
2023-04-27T02:48:03.684Z,3.62
2023-04-27T02:49:03.706Z,3.63
2023-04-27T02:50:03.661Z,3.65
2023-04-27T02:51:03.665Z,3.68
2023-04-27T02:52:03.644Z,3.68
2023-04-27T02:53:03.626Z,3.73
2023-04-27T02:54:03.673Z,3.70
2023-04-27T02:55:03.603Z,3.70
2023-04-27T02:56:03.612Z,3.70
2023-04-27T02:57:03.600Z,3.70
2023-04-27T02:58:03.599Z,3.68
2023-04-27T02:59:03.598Z,3.68
2023-04-27T03:00:03.982Z,3.66
2023-04-27T03:01:03.623Z,3.66
2023-04-27T03:02:03.530Z,3.62
2023-04-27T03:03:03.587Z,3.63
2023-04-27T03:04:03.753Z,3.65
2023-04-27T03:05:03.493Z,3.63
2023-04-27T03:06:03.474Z,3.62
2023-04-27T03:07:03.472Z,3.62
2023-04-27T03:08:05.644Z,3.62
2023-04-27T03:09:03.486Z,3.60
2023-04-27T03:10:03.430Z,3.60
2023-04-27T03:11:03.431Z,3.59
2023-04-27T03:12:03.424Z,3.59
2023-04-27T03:13:03.407Z,3.58
2023-04-27T03:14:03.467Z,3.59
2023-04-27T03:15:03.400Z,3.56
2023-04-27T03:16:03.417Z,3.55
2023-04-27T03:17:03.375Z,3.56
2023-04-27T03:18:03.452Z,3.58
2023-04-27T03:19:03.407Z,3.58
2023-04-27T03:20:03.330Z,3.58
2023-04-27T03:21:03.320Z,3.59
2023-04-27T03:22:03.340Z,3.62
2023-04-27T03:23:03.293Z,3.60
2023-04-27T03:24:03.323Z,3.62
2023-04-27T03:25:03.260Z,3.62
2023-04-27T03:26:03.260Z,3.62
2023-04-27T03:27:03.254Z,3.58
2023-04-27T03:28:03.232Z,3.60
2023-04-27T03:29:03.277Z,3.58
2023-04-27T03:30:03.215Z,3.58
2023-04-27T03:31:03.192Z,3.58
2023-04-27T03:32:03.282Z,3.58
2023-04-27T03:33:03.244Z,3.59
2023-04-27T03:34:03.170Z,3.58
2023-04-27T03:35:03.188Z,3.59
2023-04-27T03:36:03.150Z,3.58
2023-04-27T03:37:03.145Z,3.60
2023-04-27T03:38:03.133Z,3.63
2023-04-27T03:39:03.121Z,3.66
2023-04-27T03:40:03.134Z,3.66
2023-04-27T03:41:03.080Z,3.66
2023-04-27T03:42:03.086Z,3.69
2023-04-27T03:43:03.074Z,3.68
2023-04-27T03:44:03.046Z,3.69
2023-04-27T03:45:03.071Z,3.70
2023-04-27T03:46:03.110Z,3.70
2023-04-27T03:47:03.037Z,3.73
2023-04-27T03:48:03.070Z,3.74
2023-04-27T03:49:03.012Z,3.77
2023-04-27T03:50:03.030Z,3.81
2023-04-27T03:51:03.003Z,3.88
2023-04-27T03:52:02.975Z,3.95
2023-04-27T03:53:02.964Z,4.02
2023-04-27T03:54:02.950Z,4.08
2023-04-27T03:55:02.972Z,4.13
2023-04-27T03:56:02.935Z,4.17
2023-04-27T03:57:02.934Z,4.19
2023-04-27T03:58:02.906Z,4.17
2023-04-27T03:59:02.932Z,4.19
2023-04-27T04:00:02.880Z,4.20
2023-04-27T04:01:02.890Z,4.22
2023-04-27T04:02:02.866Z,4.23
2023-04-27T04:03:03.034Z,4.30
2023-04-27T04:04:03.109Z,4.34
2023-04-27T04:05:02.900Z,4.35
2023-04-27T04:06:02.816Z,4.41
2023-04-27T04:07:02.790Z,4.42
2023-04-27T04:08:02.788Z,4.45
2023-04-27T04:09:02.860Z,4.44
2023-04-27T04:10:02.770Z,4.42
2023-04-27T04:11:02.787Z,4.42
2023-04-27T04:12:02.756Z,4.40
2023-04-27T04:13:02.714Z,4.38
2023-04-27T04:14:02.773Z,4.40
2023-04-27T04:15:02.698Z,4.41
2023-04-27T04:16:02.832Z,4.40
2023-04-27T04:17:02.689Z,4.41
2023-04-27T04:18:02.785Z,4.44
2023-04-27T04:19:02.686Z,4.48
2023-04-27T04:20:02.707Z,4.49
2023-04-27T04:21:02.666Z,4.53
2023-04-27T04:22:02.634Z,4.56
2023-04-27T04:23:02.617Z,4.58
2023-04-27T04:24:02.628Z,4.60
2023-04-27T04:25:02.633Z,4.67
2023-04-27T04:26:02.608Z,4.66
2023-04-27T04:27:02.592Z,4.68
2023-04-27T04:28:02.570Z,4.71
2023-04-27T04:29:02.561Z,4.77
2023-04-27T04:30:02.596Z,4.80
2023-04-27T04:31:02.606Z,4.82
2023-04-27T04:32:02.520Z,4.84
2023-04-27T04:33:02.593Z,4.84
2023-04-27T04:34:02.514Z,4.87
2023-04-27T04:35:02.515Z,4.89
2023-04-27T04:36:02.488Z,4.90
2023-04-27T04:37:02.560Z,4.93
2023-04-27T04:38:02.451Z,4.96
2023-04-27T04:39:02.443Z,4.97
2023-04-27T04:40:02.462Z,4.96
2023-04-27T04:41:02.435Z,4.97
2023-04-27T04:42:02.410Z,4.97
2023-04-27T04:43:02.369Z,5.00
2023-04-27T04:44:02.360Z,5.04
2023-04-27T04:45:02.440Z,5.05
2023-04-27T04:46:02.370Z,5.07
2023-04-27T04:47:02.407Z,5.07
2023-04-27T04:48:02.393Z,5.08
2023-04-27T04:49:02.345Z,5.12
2023-04-27T04:50:02.449Z,5.10
2023-04-27T04:51:02.357Z,5.10
2023-04-27T04:52:02.298Z,5.11
2023-04-27T04:53:02.308Z,5.17
2023-04-27T04:54:02.360Z,5.20
2023-04-27T04:55:02.301Z,5.25
2023-04-27T04:56:02.271Z,5.28
2023-04-27T04:57:02.243Z,5.30
2023-04-27T04:58:02.240Z,5.29
2023-04-27T04:59:02.233Z,5.32
2023-04-27T05:00:02.260Z,5.33
2023-04-27T05:01:02.229Z,5.36
2023-04-27T05:02:02.274Z,5.38
2023-04-27T05:03:02.299Z,5.41
2023-04-27T05:04:02.307Z,5.39
2023-04-27T05:05:02.210Z,5.41
2023-04-27T05:06:02.140Z,5.21
2023-04-27T05:07:02.139Z,5.28
2023-04-27T05:08:02.094Z,5.29
2023-04-27T05:09:02.123Z,5.30
2023-04-27T05:10:02.123Z,5.47
2023-04-27T05:11:02.082Z,5.59
2023-04-27T05:12:02.073Z,5.56
2023-04-27T05:13:02.073Z,5.41
2023-04-27T05:14:02.053Z,5.39
2023-04-27T05:15:02.093Z,5.43
2023-04-27T05:16:02.044Z,5.44
2023-04-27T05:17:02.046Z,5.73
2023-04-27T05:18:02.083Z,5.80
2023-04-27T05:19:02.023Z,5.91
2023-04-27T05:20:02.018Z,5.99
2023-04-27T05:21:01.993Z,5.89
2023-04-27T05:22:01.967Z,6.08
2023-04-27T05:23:01.952Z,5.89
2023-04-27T05:24:01.912Z,5.90
2023-04-27T05:25:01.969Z,6.22
2023-04-27T05:26:01.923Z,6.30
2023-04-27T05:27:02.489Z,6.36
2023-04-27T05:28:01.901Z,6.36
2023-04-27T05:29:01.886Z,6.39
2023-04-27T05:30:01.916Z,6.45
2023-04-27T05:31:01.872Z,6.44
2023-04-27T05:32:01.990Z,6.44
2023-04-27T05:33:01.892Z,6.44
2023-04-27T05:34:01.822Z,6.36
2023-04-27T05:35:01.883Z,6.45
2023-04-27T05:36:01.811Z,6.54
2023-04-27T05:37:01.807Z,6.49
2023-04-27T05:38:01.759Z,6.26
2023-04-27T05:39:01.756Z,6.45
2023-04-27T05:40:01.783Z,6.56
2023-04-27T05:41:01.778Z,6.62
2023-04-27T05:42:01.764Z,6.44
2023-04-27T05:43:01.739Z,6.72
2023-04-27T05:44:01.735Z,6.81
2023-04-27T05:45:01.721Z,6.88
2023-04-27T05:46:01.803Z,6.97
2023-04-27T05:47:01.678Z,6.84
2023-04-27T05:48:01.812Z,7.28
2023-04-27T05:49:01.680Z,7.25
2023-04-27T05:50:01.656Z,7.25
2023-04-27T05:51:01.681Z,6.99
2023-04-27T05:52:01.641Z,7.24
2023-04-27T05:53:01.638Z,7.29
2023-04-27T05:54:01.614Z,7.25
2023-04-27T05:55:01.625Z,7.28
2023-04-27T05:56:01.616Z,7.32
2023-04-27T05:57:01.590Z,7.54
2023-04-27T05:58:08.629Z,7.56
2023-04-27T05:59:02.906Z,7.69
2023-04-27T06:00:01.531Z,7.72
2023-04-27T06:01:01.605Z,7.63
2023-04-27T06:02:01.528Z,7.72
2023-04-27T06:03:01.676Z,7.82
2023-04-27T06:04:02.058Z,8.01
2023-04-27T06:05:01.560Z,8.13
2023-04-27T06:06:01.494Z,8.05
2023-04-27T06:07:01.440Z,8.01
2023-04-27T06:08:01.429Z,7.93
2023-04-27T06:09:01.446Z,7.88
2023-04-27T06:10:01.422Z,7.97
2023-04-27T06:11:01.455Z,7.91
2023-04-27T06:12:01.421Z,7.85
2023-04-27T06:13:01.416Z,7.95
2023-04-27T06:14:01.397Z,8.03
2023-04-27T06:15:01.359Z,8.13
2023-04-27T06:16:01.453Z,8.41
2023-04-27T06:17:01.363Z,8.27
2023-04-27T06:18:01.380Z,8.28
2023-04-27T06:19:01.323Z,8.20
2023-04-27T06:20:01.320Z,8.34
2023-04-27T06:21:01.350Z,8.33
2023-04-27T06:22:01.323Z,8.48
2023-04-27T06:23:01.273Z,8.60
2023-04-27T06:24:01.273Z,8.91
2023-04-27T06:25:01.288Z,9.04
2023-04-27T06:26:01.312Z,9.40
2023-04-27T06:27:01.276Z,9.31
2023-04-27T06:28:01.262Z,9.51
2023-04-27T06:29:01.232Z,9.37
2023-04-27T06:30:01.211Z,9.39
2023-04-27T06:31:01.227Z,9.21
2023-04-27T06:32:01.239Z,8.94
2023-04-27T06:33:01.198Z,9.00
2023-04-27T06:34:01.152Z,8.94
2023-04-27T06:35:01.137Z,9.04
2023-04-27T06:36:01.178Z,8.92
2023-04-27T06:37:01.118Z,8.63
2023-04-27T06:38:01.114Z,8.48
2023-04-27T06:39:01.127Z,8.69
2023-04-27T06:40:01.092Z,8.91
2023-04-27T06:41:01.104Z,8.88
2023-04-27T06:42:01.092Z,8.92
2023-04-27T06:43:01.045Z,9.16
2023-04-27T06:44:01.059Z,9.36
2023-04-27T06:45:01.053Z,9.43
2023-04-27T06:46:01.072Z,9.59
2023-04-27T06:47:01.011Z,9.79
2023-04-27T06:48:01.126Z,10.10
2023-04-27T06:49:00.973Z,10.26
2023-04-27T06:50:00.952Z,10.30
2023-04-27T06:51:01.017Z,10.31
2023-04-27T06:52:00.956Z,10.33
2023-04-27T06:53:00.944Z,10.13
2023-04-27T06:54:00.912Z,10.17
2023-04-27T06:55:00.918Z,10.30
2023-04-27T06:56:00.946Z,10.22
2023-04-27T06:57:00.900Z,10.54
2023-04-27T06:58:00.908Z,10.84
2023-04-27T06:59:00.856Z,10.97
2023-04-27T07:00:00.862Z,10.97
2023-04-27T07:01:00.929Z,11.02
2023-04-27T07:02:00.888Z,11.02
2023-04-27T07:03:00.927Z,10.63
2023-04-27T07:04:00.983Z,10.42
2023-04-27T07:05:01.352Z,10.25
2023-04-27T07:06:00.863Z,10.17
2023-04-27T07:07:00.831Z,10.23
2023-04-27T07:08:05.235Z,10.28
2023-04-27T07:09:02.539Z,10.35
2023-04-27T07:10:00.732Z,10.23
2023-04-27T07:11:00.789Z,10.15
2023-04-27T07:12:00.740Z,10.22
2023-04-27T07:13:00.712Z,10.25
2023-04-27T07:14:00.679Z,10.01
2023-04-27T07:15:00.705Z,10.09
2023-04-27T07:16:00.776Z,10.10
2023-04-27T07:17:00.683Z,10.09
2023-04-27T07:18:00.718Z,10.10
2023-04-27T07:19:00.671Z,9.98
2023-04-27T07:20:00.657Z,10.16
2023-04-27T07:21:00.705Z,10.25
2023-04-27T07:22:00.682Z,10.04
2023-04-27T07:23:00.609Z,9.92
2023-04-27T07:24:00.621Z,9.77
2023-04-27T07:25:00.582Z,9.79
2023-04-27T07:26:00.613Z,10.02
2023-04-27T07:27:00.574Z,10.26
2023-04-27T07:28:00.525Z,10.49
2023-04-27T07:29:02.782Z,10.51
2023-04-27T07:30:01.534Z,10.38
2023-04-27T07:31:00.557Z,10.48
2023-04-27T07:32:00.523Z,10.54
2023-04-27T07:33:00.534Z,10.67
2023-04-27T07:34:00.472Z,10.84
2023-04-27T07:35:00.467Z,10.89
2023-04-27T07:36:00.502Z,11.07
2023-04-27T07:37:00.427Z,10.87
2023-04-27T07:38:00.420Z,10.34
2023-04-27T07:39:00.424Z,10.35
2023-04-27T07:40:00.421Z,10.56
2023-04-27T07:41:00.386Z,10.64
2023-04-27T07:42:00.440Z,10.89
2023-04-27T07:43:00.359Z,11.17
2023-04-27T07:44:00.354Z,11.12
2023-04-27T07:45:00.334Z,11.14
2023-04-27T07:46:00.426Z,11.22
2023-04-27T07:47:00.321Z,11.32
2023-04-27T07:48:00.411Z,11.48
2023-04-27T07:49:00.347Z,11.00
2023-04-27T07:50:00.285Z,10.71
2023-04-27T07:51:00.315Z,10.60
2023-04-27T07:52:00.273Z,10.81
2023-04-27T07:53:00.230Z,11.11
2023-04-27T07:54:00.235Z,11.32
2023-04-27T07:55:00.253Z,11.65
2023-04-27T07:56:00.268Z,11.66
2023-04-27T07:57:00.192Z,11.66
2023-04-27T07:58:00.216Z,11.23
2023-04-27T07:59:00.167Z,10.82
2023-04-27T08:00:00.243Z,10.49
2023-04-27T08:01:00.155Z,10.60
2023-04-27T08:02:17.743Z,10.86
2023-04-27T08:03:01.362Z,11.17
2023-04-27T08:04:00.379Z,11.54
2023-04-27T08:05:00.472Z,11.77
2023-04-27T08:06:00.513Z,11.69
2023-04-27T08:07:00.609Z,11.84
2023-04-27T08:08:00.584Z,12.00
2023-04-27T08:09:00.055Z,12.00
2023-04-27T08:10:00.065Z,11.91
2023-04-27T08:11:00.047Z,11.99
2023-04-27T08:12:00.095Z,12.17
2023-04-27T08:13:00.073Z,12.35
2023-04-27T08:14:00.000Z,12.15
2023-04-27T08:14:59.989Z,12.42
2023-04-27T08:16:00.009Z,12.80
2023-04-27T08:17:00.167Z,12.43
2023-04-27T08:18:00.006Z,12.03
2023-04-27T08:19:00.659Z,11.83
2023-04-27T08:19:59.951Z,11.72
2023-04-27T08:20:59.952Z,12.07
2023-04-27T08:21:59.959Z,12.67
2023-04-27T08:22:59.939Z,12.70
2023-04-27T08:23:59.896Z,13.33
2023-04-27T08:24:59.876Z,13.89
2023-04-27T08:25:59.863Z,13.57
2023-04-27T08:26:59.900Z,14.62
2023-04-27T08:27:59.878Z,14.69
2023-04-27T08:28:59.853Z,15.55
2023-04-27T08:29:59.827Z,15.10
2023-04-27T08:30:59.918Z,14.78
2023-04-27T08:31:59.943Z,14.32
2023-04-27T08:32:59.950Z,14.59
2023-04-27T08:33:59.788Z,14.29
2023-04-27T08:34:59.782Z,13.37
2023-04-27T08:35:59.759Z,12.90
2023-04-27T08:36:59.857Z,13.04
2023-04-27T08:37:59.775Z,14.25
2023-04-27T08:38:59.734Z,14.72
2023-04-27T08:39:59.708Z,14.86
2023-04-27T08:41:07.637Z,14.58
2023-04-27T08:42:00.759Z,14.81
2023-04-27T08:42:59.695Z,15.18
2023-04-27T08:43:59.761Z,15.94
2023-04-27T08:44:59.666Z,14.77
2023-04-27T08:45:59.824Z,14.70
2023-04-27T08:46:59.648Z,15.11
2023-04-27T08:47:59.705Z,15.09
2023-04-27T08:48:59.619Z,15.62
2023-04-27T08:49:59.593Z,16.12
2023-04-27T08:50:59.597Z,16.02
2023-04-27T08:51:59.562Z,15.75
2023-04-27T08:52:59.634Z,16.15
2023-04-27T08:53:59.567Z,16.83
2023-04-27T08:54:59.521Z,17.14
2023-04-27T08:55:59.559Z,16.89
2023-04-27T08:56:59.521Z,17.14
2023-04-27T08:57:59.596Z,17.79
2023-04-27T08:58:59.533Z,18.89
2023-04-27T08:59:59.511Z,19.16
2023-04-27T09:00:59.489Z,18.66
2023-04-27T09:01:59.525Z,18.60
2023-04-27T09:02:59.646Z,18.19
2023-04-27T09:04:00.132Z,17.59
2023-04-27T09:04:59.776Z,17.19
2023-04-27T09:06:05.292Z,16.23
2023-04-27T09:07:00.399Z,15.95
2023-04-27T09:07:59.447Z,15.97
2023-04-27T09:08:59.425Z,15.52
2023-04-27T09:09:59.380Z,15.84
2023-04-27T09:10:59.409Z,16.39
2023-04-27T09:11:59.419Z,16.61
2023-04-27T09:12:59.374Z,16.24
2023-04-27T09:13:59.360Z,15.28
2023-04-27T09:14:59.320Z,15.18
2023-04-27T09:15:59.338Z,15.10
2023-04-27T09:16:59.450Z,14.92
2023-04-27T09:17:59.377Z,15.17
2023-04-27T09:18:59.299Z,15.39
2023-04-27T09:19:59.267Z,14.69
2023-04-27T09:20:59.254Z,14.48
2023-04-27T09:21:59.222Z,14.68
2023-04-27T09:22:59.268Z,14.73
2023-04-27T09:23:59.234Z,15.17
2023-04-27T09:24:59.232Z,15.83
2023-04-27T09:25:59.206Z,16.58
2023-04-27T09:27:00.815Z,16.43
2023-04-27T09:27:59.266Z,16.38
2023-04-27T09:28:59.162Z,16.24
2023-04-27T09:29:59.189Z,16.23
2023-04-27T09:30:59.141Z,15.39
2023-04-27T09:31:59.200Z,15.55
2023-04-27T09:32:59.226Z,15.58
2023-04-27T09:33:59.120Z,15.09
2023-04-27T09:34:59.117Z,15.06
2023-04-27T09:35:59.098Z,15.37
2023-04-27T09:36:59.082Z,14.96
2023-04-27T09:37:59.113Z,14.82
2023-04-27T09:38:59.062Z,14.94
2023-04-27T09:39:59.065Z,15.39
2023-04-27T09:40:59.018Z,15.86
2023-04-27T09:41:59.050Z,15.82
2023-04-27T09:42:59.057Z,14.88
2023-04-27T09:43:59.014Z,14.81
2023-04-27T09:44:58.996Z,14.70
2023-04-27T09:45:59.136Z,14.33
2023-04-27T09:46:58.964Z,14.40
2023-04-27T09:47:59.046Z,14.44
2023-04-27T09:48:58.928Z,14.45
2023-04-27T09:49:58.923Z,14.55
2023-04-27T09:50:58.901Z,14.29
2023-04-27T09:51:59.023Z,14.17
2023-04-27T09:52:58.935Z,13.90
2023-04-27T09:53:58.898Z,13.74
2023-04-27T09:54:58.890Z,13.38
2023-04-27T09:55:58.870Z,13.18
2023-04-27T09:56:58.842Z,12.85
2023-04-27T09:57:58.905Z,12.57
2023-04-27T09:58:58.837Z,12.43
2023-04-27T09:59:58.838Z,12.64
2023-04-27T10:00:58.846Z,12.93
2023-04-27T10:02:00.089Z,12.91
2023-04-27T10:02:58.907Z,13.09
2023-04-27T10:03:58.863Z,13.16
2023-04-27T10:04:58.936Z,13.27
2023-04-27T10:05:58.743Z,13.47
2023-04-27T10:06:58.765Z,13.77
2023-04-27T10:07:58.754Z,13.99
2023-04-27T10:08:58.742Z,14.05
2023-04-27T10:09:58.707Z,13.90
2023-04-27T10:10:58.693Z,13.90
2023-04-27T10:11:58.703Z,13.90
2023-04-27T10:12:58.687Z,13.74
2023-04-27T10:13:58.735Z,13.86
2023-04-27T10:14:58.657Z,13.97
2023-04-27T10:15:58.642Z,14.14
2023-04-27T10:16:58.673Z,13.89
2023-04-27T10:17:58.736Z,13.44
2023-04-27T10:18:58.628Z,12.95
2023-04-27T10:19:58.786Z,13.19
2023-04-27T10:20:58.597Z,13.70
2023-04-27T10:21:58.582Z,13.87
2023-04-27T10:22:58.606Z,14.23
2023-04-27T10:23:58.574Z,14.15
2023-04-27T10:24:58.545Z,13.95
2023-04-27T10:25:58.524Z,13.75
2023-04-27T10:26:58.491Z,14.08
2023-04-27T10:27:58.543Z,14.20
2023-04-27T10:28:58.541Z,14.15
2023-04-27T10:29:58.503Z,14.07
2023-04-27T10:30:58.488Z,13.92
2023-04-27T10:31:58.475Z,13.75
2023-04-27T10:32:58.549Z,13.70
2023-04-27T10:33:58.485Z,13.63
2023-04-27T10:34:58.450Z,13.52
2023-04-27T10:35:58.422Z,13.08
2023-04-27T10:36:58.417Z,12.91
2023-04-27T10:37:58.480Z,12.98
2023-04-27T10:38:58.415Z,12.94
2023-04-27T10:39:58.373Z,13.03
2023-04-27T10:40:58.384Z,12.97
2023-04-27T10:41:58.348Z,13.19
2023-04-27T10:42:58.359Z,13.22
2023-04-27T10:43:58.379Z,13.31
2023-04-27T10:44:58.320Z,13.19
2023-04-27T10:45:58.373Z,13.30
2023-04-27T10:46:58.353Z,13.60
2023-04-27T10:47:58.336Z,13.78
2023-04-27T10:48:58.341Z,13.87
2023-04-27T10:49:58.260Z,13.77
2023-04-27T10:50:58.244Z,14.00
2023-04-27T10:51:58.258Z,14.36
2023-04-27T10:52:59.866Z,14.22
2023-04-27T10:53:58.239Z,14.08
2023-04-27T10:54:58.226Z,14.35
2023-04-27T10:55:58.196Z,14.69
2023-04-27T10:56:58.197Z,14.91
2023-04-27T10:57:58.238Z,15.07
2023-04-27T10:58:58.171Z,15.43
2023-04-27T10:59:58.203Z,15.47
2023-04-27T11:00:58.123Z,15.04
2023-04-27T11:01:58.151Z,14.77
2023-04-27T11:02:58.257Z,14.91
2023-04-27T11:03:58.128Z,15.07
2023-04-27T11:04:58.123Z,15.09
2023-04-27T11:05:58.135Z,15.35
2023-04-27T11:06:58.076Z,15.76
2023-04-27T11:07:58.139Z,16.00
2023-04-27T11:08:58.087Z,16.64
2023-04-27T11:09:58.075Z,17.44
2023-04-27T11:10:58.085Z,17.49
2023-04-27T11:11:58.029Z,17.70
2023-04-27T11:12:57.988Z,17.36
2023-04-27T11:13:58.044Z,17.08
2023-04-27T11:14:57.956Z,17.72
2023-04-27T11:15:58.163Z,18.22
2023-04-27T11:16:57.969Z,17.97
2023-04-27T11:17:57.999Z,16.64
2023-04-27T11:18:59.674Z,17.76
2023-04-27T11:19:57.929Z,18.43
2023-04-27T11:20:57.899Z,18.75
2023-04-27T11:21:57.923Z,19.54
2023-04-27T11:22:57.891Z,20.02
2023-04-27T11:23:57.929Z,18.92
2023-04-27T11:24:57.907Z,19.04
2023-04-27T11:25:57.883Z,18.88
2023-04-27T11:26:57.878Z,18.96
2023-04-27T11:27:57.875Z,18.71
2023-04-27T11:28:57.881Z,19.39
2023-04-27T11:29:57.833Z,20.11
2023-04-27T11:30:57.829Z,19.99
2023-04-27T11:31:57.859Z,20.26
2023-04-27T11:32:57.848Z,19.40
2023-04-27T11:33:57.822Z,18.84
2023-04-27T11:34:59.614Z,18.16
2023-04-27T11:35:57.769Z,18.50
2023-04-27T11:37:07.213Z,17.71
2023-04-27T11:37:58.729Z,17.19
2023-04-27T11:38:57.868Z,17.02
2023-04-27T11:39:57.715Z,17.01
2023-04-27T11:40:57.675Z,17.04
2023-04-27T11:41:57.663Z,16.72
2023-04-27T11:42:57.664Z,15.98
2023-04-27T11:43:57.704Z,15.86
2023-04-27T11:44:57.659Z,15.68
2023-04-27T11:45:57.647Z,14.91
2023-04-27T11:46:57.655Z,14.77
2023-04-27T11:47:57.664Z,14.54
2023-04-27T11:48:57.649Z,14.22
2023-04-27T11:49:57.669Z,14.35
2023-04-27T11:50:57.611Z,14.15
2023-04-27T11:51:57.588Z,14.26
2023-04-27T11:52:57.571Z,14.11
2023-04-27T11:53:57.633Z,14.14
2023-04-27T11:54:57.553Z,14.07
2023-04-27T11:55:57.521Z,13.79
2023-04-27T11:56:57.522Z,13.68
2023-04-27T11:57:57.532Z,13.62
2023-04-27T11:58:57.559Z,13.72
2023-04-27T11:59:57.492Z,13.68
2023-04-27T12:00:57.459Z,13.89
2023-04-27T12:01:57.534Z,14.04
2023-04-27T12:02:57.679Z,14.10
2023-04-27T12:04:00.760Z,14.23
2023-04-27T12:04:57.653Z,14.17
2023-04-27T12:06:57.388Z,14.62
2023-04-27T12:07:57.391Z,14.86
2023-04-27T12:08:57.391Z,15.07
2023-04-27T12:09:59.475Z,15.47
2023-04-27T12:10:57.335Z,15.59
2023-04-27T12:11:57.361Z,15.75
2023-04-27T12:12:57.370Z,16.10
2023-04-27T12:13:57.392Z,15.98
2023-04-27T12:14:57.298Z,15.49
2023-04-27T12:15:58.498Z,15.70
2023-04-27T12:16:57.338Z,15.88
2023-04-27T12:17:57.340Z,16.36
2023-04-27T12:18:57.306Z,17.30
2023-04-27T12:19:57.246Z,16.78
2023-04-27T12:20:58.132Z,16.53
2023-04-27T12:21:57.250Z,16.28
2023-04-27T12:22:57.252Z,15.39
2023-04-27T12:23:57.267Z,15.07
2023-04-27T12:24:57.210Z,14.82
2023-04-27T12:25:57.202Z,14.78
2023-04-27T12:26:57.161Z,14.84
2023-04-27T12:27:57.185Z,15.18
2023-04-27T12:28:57.205Z,15.70
2023-04-27T12:29:57.172Z,15.73
2023-04-27T12:30:57.168Z,15.82
2023-04-27T12:31:57.164Z,16.10
2023-04-27T12:32:57.157Z,16.49
2023-04-27T12:33:57.150Z,15.47
2023-04-27T12:34:57.083Z,15.09
2023-04-27T12:35:57.091Z,15.37
2023-04-27T12:36:57.037Z,15.83
2023-04-27T12:37:57.055Z,16.15
2023-04-27T12:38:57.009Z,15.98
2023-04-27T12:39:57.092Z,16.32
2023-04-27T12:40:57.000Z,16.66
2023-04-27T12:41:57.018Z,16.64
2023-04-27T12:42:58.534Z,16.10
2023-04-27T12:43:56.973Z,15.77
2023-04-27T12:44:57.017Z,15.95
2023-04-27T12:45:57.047Z,16.57
2023-04-27T12:46:56.958Z,16.42
2023-04-27T12:48:03.291Z,15.28
2023-04-27T12:48:57.929Z,15.02
2023-04-27T12:49:56.948Z,14.89
2023-04-27T12:50:56.917Z,15.54
2023-04-27T12:51:56.910Z,16.23
2023-04-27T12:52:56.909Z,16.79
2023-04-27T12:53:58.234Z,17.72
2023-04-27T12:54:56.903Z,18.00
2023-04-27T12:55:56.841Z,17.87
2023-04-27T12:56:56.857Z,18.25
2023-04-27T12:57:56.842Z,18.19
2023-04-27T12:58:56.838Z,18.34
2023-04-27T12:59:57.689Z,17.97
2023-04-27T13:00:56.791Z,17.89
2023-04-27T13:01:56.875Z,17.05
2023-04-27T13:02:57.084Z,16.97
2023-04-27T13:03:56.868Z,17.45
2023-04-27T13:04:56.822Z,17.90
2023-04-27T13:05:56.728Z,18.00